createdAt,value
2024-01-11T00:00:21.892Z,18.20
2024-01-11T00:01:21.958Z,18.00
2024-01-11T00:02:21.977Z,18.90
2024-01-11T00:03:21.882Z,17.70
2024-01-11T00:04:21.919Z,17.60
2024-01-11T00:05:21.935Z,18.00
2024-01-11T00:06:21.945Z,18.00
2024-01-11T00:07:21.881Z,18.00
2024-01-11T00:08:21.834Z,17.50
2024-01-11T00:09:21.804Z,17.50
2024-01-11T00:10:21.864Z,18.20
2024-01-11T00:11:21.829Z,18.00
2024-01-11T00:12:21.777Z,17.50
2024-01-11T00:13:21.769Z,17.90
2024-01-11T00:14:21.816Z,18.00
2024-01-11T00:15:21.832Z,18.20
2024-01-11T00:16:21.721Z,17.40
2024-01-11T00:17:21.761Z,17.80
2024-01-11T00:18:21.738Z,17.10
2024-01-11T00:19:21.831Z,17.10
2024-01-11T00:20:21.786Z,17.70
2024-01-11T00:21:21.682Z,17.60
2024-01-11T00:22:21.668Z,17.90
2024-01-11T00:23:21.698Z,17.40
2024-01-11T00:24:21.654Z,17.60
2024-01-11T00:25:21.662Z,17.10
2024-01-11T00:26:21.697Z,17.60
2024-01-11T00:27:21.644Z,17.00
2024-01-11T00:28:21.630Z,18.00
2024-01-11T00:29:21.669Z,16.80
2024-01-11T00:30:21.638Z,17.10
2024-01-11T00:31:21.636Z,16.90
2024-01-11T00:32:21.591Z,17.30
2024-01-11T00:33:21.674Z,16.10
2024-01-11T00:34:21.595Z,16.90
2024-01-11T00:35:21.601Z,16.40
2024-01-11T00:36:21.554Z,16.50
2024-01-11T00:37:21.523Z,16.80
2024-01-11T00:38:21.587Z,17.00
2024-01-11T00:39:21.500Z,17.80
2024-01-11T00:40:21.495Z,17.20
2024-01-11T00:41:21.532Z,17.10
2024-01-11T00:42:21.486Z,17.00
2024-01-11T00:43:21.494Z,17.80
2024-01-11T00:44:21.524Z,17.00
2024-01-11T00:45:21.466Z,17.60
2024-01-11T00:46:21.426Z,17.00
2024-01-11T00:47:21.488Z,18.00
2024-01-11T00:48:21.490Z,16.90
2024-01-11T00:49:21.549Z,17.10
2024-01-11T00:50:21.451Z,17.70
2024-01-11T00:51:21.377Z,18.30
2024-01-11T00:52:21.370Z,17.60
2024-01-11T00:53:21.432Z,17.50
2024-01-11T00:54:21.380Z,17.80
2024-01-11T00:55:21.325Z,17.40
2024-01-11T00:56:21.364Z,17.30
2024-01-11T00:57:22.704Z,17.60
2024-01-11T00:58:21.379Z,17.80
2024-01-11T00:59:21.307Z,17.50
2024-01-11T01:00:21.298Z,17.60
2024-01-11T01:01:21.352Z,16.80
2024-01-11T01:02:21.305Z,18.50
2024-01-11T01:03:21.283Z,17.20
2024-01-11T01:04:21.276Z,16.90
2024-01-11T01:05:21.301Z,18.40
2024-01-11T01:06:21.276Z,17.50
2024-01-11T01:07:21.244Z,17.50
2024-01-11T01:08:21.304Z,18.50
2024-01-11T01:09:21.239Z,18.30
2024-01-11T01:10:21.237Z,17.50
2024-01-11T01:11:21.222Z,18.80
2024-01-11T01:12:21.175Z,18.60
2024-01-11T01:13:21.200Z,18.10
2024-01-11T01:14:21.280Z,17.90
2024-01-11T01:15:21.141Z,18.40
2024-01-11T01:16:21.160Z,17.10
2024-01-11T01:17:21.187Z,16.90
2024-01-11T01:18:21.198Z,17.60
2024-01-11T01:19:21.178Z,18.00
2024-01-11T01:20:21.177Z,17.80
2024-01-11T01:21:21.141Z,18.50
2024-01-11T01:22:21.081Z,18.00
2024-01-11T01:23:21.140Z,17.80
2024-01-11T01:24:21.073Z,17.90
2024-01-11T01:25:21.100Z,18.00
2024-01-11T01:26:21.098Z,19.30
2024-01-11T01:27:21.051Z,17.40
2024-01-11T01:28:21.009Z,18.60
2024-01-11T01:29:21.083Z,18.60
2024-01-11T01:30:21.013Z,17.90
2024-01-11T01:31:21.013Z,18.20
2024-01-11T01:32:21.144Z,18.50
2024-01-11T01:33:21.083Z,19.20
2024-01-11T01:34:21.110Z,18.80
2024-01-11T01:35:21.022Z,18.40
2024-01-11T01:36:20.948Z,19.50
2024-01-11T01:37:20.944Z,18.20
2024-01-11T01:38:20.980Z,18.50
2024-01-11T01:39:20.906Z,18.70
2024-01-11T01:40:20.896Z,18.10
2024-01-11T01:41:20.968Z,18.90
2024-01-11T01:42:20.891Z,18.90
2024-01-11T01:43:20.865Z,18.70
2024-01-11T01:44:20.987Z,18.50
2024-01-11T01:45:20.871Z,19.90
2024-01-11T01:46:20.836Z,18.60
2024-01-11T01:47:20.932Z,18.60
2024-01-11T01:48:20.976Z,18.50
2024-01-11T01:49:20.975Z,18.40
2024-01-11T01:50:20.918Z,19.30
2024-01-11T01:51:20.824Z,18.20
2024-01-11T01:52:20.773Z,18.40
2024-01-11T01:53:20.856Z,18.70
2024-01-11T01:54:20.767Z,19.10
2024-01-11T01:55:20.791Z,19.70
2024-01-11T01:56:20.778Z,19.10
2024-01-11T01:57:20.730Z,18.00
2024-01-11T01:58:20.715Z,19.50
2024-01-11T01:59:20.817Z,18.50
2024-01-11T02:00:20.693Z,18.40
2024-01-11T02:01:20.709Z,19.40
2024-01-11T02:02:20.720Z,19.40
2024-01-11T02:03:20.710Z,18.60
2024-01-11T02:04:20.681Z,18.20
2024-01-11T02:05:20.858Z,18.30
2024-01-11T02:06:20.740Z,17.80
2024-01-11T02:07:20.646Z,18.40
2024-01-11T02:08:20.686Z,18.20
2024-01-11T02:09:20.605Z,18.10
2024-01-11T02:10:20.612Z,18.40
2024-01-11T02:11:20.640Z,17.90
2024-01-11T02:12:20.597Z,18.00
2024-01-11T02:13:20.566Z,17.90
2024-01-11T02:14:20.609Z,18.60
2024-01-11T02:15:20.554Z,19.30
2024-01-11T02:16:20.593Z,18.40
2024-01-11T02:17:20.564Z,19.10
2024-01-11T02:18:20.643Z,18.70
2024-01-11T02:19:20.580Z,19.10
2024-01-11T02:20:20.540Z,17.70
2024-01-11T02:21:20.528Z,18.00
2024-01-11T02:22:20.488Z,18.80
2024-01-11T02:23:20.621Z,17.80
2024-01-11T02:24:20.454Z,18.20
2024-01-11T02:25:20.462Z,18.40
2024-01-11T02:26:20.503Z,17.80
2024-01-11T02:27:20.466Z,18.80
2024-01-11T02:28:20.468Z,18.00
2024-01-11T02:29:20.461Z,18.10
2024-01-11T02:30:20.522Z,17.70
2024-01-11T02:31:20.391Z,17.50
2024-01-11T02:32:20.521Z,17.80
2024-01-11T02:33:20.641Z,18.70
2024-01-11T02:34:20.456Z,19.10
2024-01-11T02:35:20.476Z,17.80
2024-01-11T02:36:20.333Z,18.00
2024-01-11T02:37:20.341Z,18.30
2024-01-11T02:38:20.350Z,17.80
2024-01-11T02:39:20.362Z,18.50
2024-01-11T02:40:20.318Z,18.50
2024-01-11T02:41:20.565Z,18.90
2024-01-11T02:42:20.332Z,18.60
2024-01-11T02:43:20.278Z,18.30
2024-01-11T02:44:20.292Z,18.90
2024-01-11T02:45:20.273Z,18.30
2024-01-11T02:46:20.266Z,17.90
2024-01-11T02:47:20.292Z,17.90
2024-01-11T02:48:20.287Z,18.20
2024-01-11T02:49:20.311Z,18.90
2024-01-11T02:50:20.271Z,18.20
2024-01-11T02:51:20.224Z,17.60
2024-01-11T02:52:20.197Z,18.80
2024-01-11T02:53:20.252Z,18.30
2024-01-11T02:54:20.160Z,19.10
2024-01-11T02:55:20.181Z,17.90
2024-01-11T02:56:20.165Z,18.20
2024-01-11T02:57:20.167Z,18.40
2024-01-11T02:58:20.149Z,18.20
2024-01-11T02:59:20.160Z,17.40
2024-01-11T03:00:20.127Z,18.70
2024-01-11T03:01:20.165Z,18.10
2024-01-11T03:02:20.134Z,18.80
2024-01-11T03:03:20.176Z,17.70
2024-01-11T03:04:20.080Z,18.20
2024-01-11T03:05:20.128Z,20.00
2024-01-11T03:06:20.079Z,18.70
2024-01-11T03:07:20.064Z,18.00
2024-01-11T03:08:20.059Z,18.30
2024-01-11T03:09:20.064Z,19.40
2024-01-11T03:10:20.019Z,18.20
2024-01-11T03:11:20.000Z,19.30
2024-01-11T03:12:19.988Z,18.40
2024-01-11T03:13:20.017Z,19.20
2024-01-11T03:14:20.013Z,18.50
2024-01-11T03:15:19.961Z,18.00
2024-01-11T03:16:19.986Z,18.60
2024-01-11T03:17:20.004Z,18.40
2024-01-11T03:18:20.097Z,18.20
2024-01-11T03:19:20.190Z,18.50
2024-01-11T03:20:19.971Z,18.30
2024-01-11T03:21:19.900Z,17.90
2024-01-11T03:22:19.896Z,20.20
2024-01-11T03:23:20.011Z,19.00
2024-01-11T03:24:19.942Z,19.30
2024-01-11T03:25:19.863Z,18.90
2024-01-11T03:26:19.980Z,19.30
2024-01-11T03:27:19.858Z,20.00
2024-01-11T03:28:19.831Z,18.90
2024-01-11T03:29:20.031Z,18.00
2024-01-11T03:30:19.989Z,18.60
2024-01-11T03:31:19.839Z,19.00
2024-01-11T03:32:19.878Z,18.20
2024-01-11T03:33:19.906Z,18.50
2024-01-11T03:34:19.959Z,18.30
2024-01-11T03:35:19.794Z,19.00
2024-01-11T03:36:19.770Z,19.90
2024-01-11T03:37:19.798Z,19.30
2024-01-11T03:38:19.836Z,19.30
2024-01-11T03:39:19.732Z,19.00
2024-01-11T03:40:19.701Z,19.20
2024-01-11T03:41:19.777Z,19.60
2024-01-11T03:42:19.742Z,19.40
2024-01-11T03:43:19.666Z,20.20
2024-01-11T03:44:19.696Z,17.70
2024-01-11T03:45:19.706Z,19.40
2024-01-11T03:46:19.666Z,18.90
2024-01-11T03:47:19.692Z,19.90
2024-01-11T03:48:19.706Z,19.30
2024-01-11T03:49:19.707Z,20.00
2024-01-11T03:50:19.643Z,20.80
2024-01-11T03:51:19.641Z,20.00
2024-01-11T03:52:19.598Z,19.50
2024-01-11T03:53:19.624Z,20.00
2024-01-11T03:54:19.593Z,20.40
2024-01-11T03:55:19.570Z,19.40
2024-01-11T03:56:19.576Z,20.00
2024-01-11T03:57:19.567Z,18.90
2024-01-11T03:58:19.540Z,19.30
2024-01-11T03:59:19.724Z,19.30
2024-01-11T04:00:19.537Z,18.90
2024-01-11T04:01:19.606Z,19.90
2024-01-11T04:02:19.601Z,19.50
2024-01-11T04:03:19.545Z,19.60
2024-01-11T04:04:19.493Z,19.00
2024-01-11T04:05:19.536Z,19.30
2024-01-11T04:06:19.572Z,18.60
2024-01-11T04:07:19.456Z,19.20
2024-01-11T04:08:19.414Z,19.70
2024-01-11T04:09:19.384Z,19.70
2024-01-11T04:10:19.374Z,19.10
2024-01-11T04:11:19.417Z,20.00
2024-01-11T04:12:19.396Z,20.50
2024-01-11T04:13:20.363Z,19.90
2024-01-11T04:14:19.436Z,20.00
2024-01-11T04:15:19.304Z,19.30
2024-01-11T04:16:19.361Z,20.20
2024-01-11T04:17:19.352Z,19.40
2024-01-11T04:18:19.478Z,21.00
2024-01-11T04:19:22.519Z,18.90
2024-01-11T04:20:19.295Z,20.20
2024-01-11T04:21:19.300Z,20.20
2024-01-11T04:22:19.247Z,19.70
2024-01-11T04:23:19.297Z,20.00
2024-01-11T04:24:19.240Z,19.60
2024-01-11T04:25:19.275Z,19.70
2024-01-11T04:26:19.380Z,20.10
2024-01-11T04:27:19.211Z,19.50
2024-01-11T04:28:19.225Z,19.30
2024-01-11T04:29:19.236Z,18.90
2024-01-11T04:30:19.299Z,20.10
2024-01-11T04:31:19.165Z,19.60
2024-01-11T04:32:19.158Z,21.50
2024-01-11T04:33:19.221Z,20.40
2024-01-11T04:34:19.179Z,19.90
2024-01-11T04:35:19.167Z,20.60
2024-01-11T04:36:19.143Z,21.60
2024-01-11T04:37:19.103Z,20.70
2024-01-11T04:38:19.147Z,20.80
2024-01-11T04:39:19.088Z,19.90
2024-01-11T04:40:19.080Z,20.30
2024-01-11T04:41:19.168Z,20.40
2024-01-11T04:42:19.073Z,20.50
2024-01-11T04:43:19.109Z,20.40
2024-01-11T04:44:19.075Z,20.90
2024-01-11T04:45:19.091Z,20.30
2024-01-11T04:46:19.022Z,21.80
2024-01-11T04:47:19.077Z,20.00
2024-01-11T04:48:19.066Z,20.80
2024-01-11T04:49:19.069Z,20.30
2024-01-11T04:50:22.279Z,21.50
2024-01-11T04:51:19.002Z,20.50
2024-01-11T04:52:19.006Z,21.30
2024-01-11T04:53:19.055Z,20.70
2024-01-11T04:54:18.937Z,22.00
2024-01-11T04:55:18.946Z,20.10
2024-01-11T04:56:19.155Z,20.50
2024-01-11T04:57:18.919Z,20.10
2024-01-11T04:58:18.889Z,21.40
2024-01-11T04:59:18.965Z,20.80
2024-01-11T05:00:18.907Z,21.20
2024-01-11T05:01:19.020Z,20.60
2024-01-11T05:02:18.903Z,22.50
2024-01-11T05:03:18.925Z,21.00
2024-01-11T05:04:18.902Z,20.90
2024-01-11T05:05:19.039Z,21.10
2024-01-11T05:06:18.942Z,20.70
2024-01-11T05:07:18.821Z,20.90
2024-01-11T05:08:18.923Z,21.40
2024-01-11T05:09:18.806Z,22.40
2024-01-11T05:10:18.801Z,20.60
2024-01-11T05:11:18.935Z,21.60
2024-01-11T05:12:18.777Z,20.80
2024-01-11T05:13:18.768Z,20.10
2024-01-11T05:14:18.810Z,21.50
2024-01-11T05:15:18.774Z,21.00
2024-01-11T05:16:18.718Z,21.70
2024-01-11T05:17:18.844Z,23.10
2024-01-11T05:18:18.787Z,23.00
2024-01-11T05:19:18.919Z,22.90
2024-01-11T05:20:18.700Z,22.70
2024-01-11T05:21:18.740Z,21.70
2024-01-11T05:22:18.752Z,22.20
2024-01-11T05:23:18.782Z,21.30
2024-01-11T05:24:18.700Z,21.30
2024-01-11T05:25:18.678Z,22.20
2024-01-11T05:26:18.741Z,21.70
2024-01-11T05:27:18.664Z,22.60
2024-01-11T05:28:18.619Z,22.10
2024-01-11T05:29:18.675Z,21.90
2024-01-11T05:30:18.704Z,22.20
2024-01-11T05:31:19.142Z,22.40
2024-01-11T05:32:18.653Z,22.80
2024-01-11T05:33:18.769Z,23.00
2024-01-11T05:34:18.757Z,22.80
2024-01-11T05:35:18.671Z,22.40
2024-01-11T05:36:18.529Z,23.30
2024-01-11T05:37:18.575Z,21.80
2024-01-11T05:38:18.644Z,23.00
2024-01-11T05:39:18.575Z,22.20
2024-01-11T05:40:18.567Z,21.90
2024-01-11T05:41:18.529Z,21.40
2024-01-11T05:42:18.485Z,22.40
2024-01-11T05:43:18.502Z,22.10
2024-01-11T05:44:18.516Z,22.30
2024-01-11T05:45:20.950Z,22.80
2024-01-11T05:46:18.450Z,22.40
2024-01-11T05:47:18.648Z,22.00
2024-01-11T05:48:18.533Z,22.30
2024-01-11T05:49:18.509Z,22.80
2024-01-11T05:50:18.488Z,22.30
2024-01-11T05:51:18.421Z,23.00
2024-01-11T05:52:18.426Z,22.90
2024-01-11T05:53:18.496Z,22.40
2024-01-11T05:54:18.427Z,22.00
2024-01-11T05:55:18.393Z,21.70
2024-01-11T05:56:18.405Z,22.60
2024-01-11T05:57:18.367Z,23.10
2024-01-11T05:58:18.376Z,22.20
2024-01-11T05:59:18.428Z,22.60
2024-01-11T06:00:18.381Z,22.80
2024-01-11T06:01:18.332Z,23.40
2024-01-11T06:02:18.391Z,22.90
2024-01-11T06:03:18.324Z,23.40
2024-01-11T06:04:18.272Z,22.60
2024-01-11T06:05:18.580Z,23.70
2024-01-11T06:06:18.441Z,23.00
2024-01-11T06:07:18.344Z,23.10
2024-01-11T06:08:18.459Z,22.90
2024-01-11T06:09:18.222Z,23.60
2024-01-11T06:10:18.312Z,23.60
2024-01-11T06:11:18.236Z,22.60
2024-01-11T06:12:18.189Z,23.50
2024-01-11T06:13:18.176Z,22.50
2024-01-11T06:14:18.233Z,22.10
2024-01-11T06:15:18.192Z,23.30
2024-01-11T06:16:18.141Z,23.50
2024-01-11T06:17:18.197Z,22.90
2024-01-11T06:18:18.183Z,23.40
2024-01-11T06:19:18.226Z,22.70
2024-01-11T06:20:18.179Z,23.30
2024-01-11T06:21:18.257Z,23.00
2024-01-11T06:22:18.090Z,23.60
2024-01-11T06:23:18.556Z,22.90
2024-01-11T06:24:18.145Z,23.80
2024-01-11T06:25:18.065Z,23.40
2024-01-11T06:26:18.118Z,23.20
2024-01-11T06:27:18.092Z,23.60
2024-01-11T06:28:18.043Z,23.30
2024-01-11T06:29:18.104Z,23.30
2024-01-11T06:30:18.071Z,23.90
2024-01-11T06:31:18.027Z,23.90
2024-01-11T06:32:17.984Z,23.50
2024-01-11T06:33:18.074Z,21.80
2024-01-11T06:34:17.970Z,23.10
2024-01-11T06:35:18.016Z,23.50
2024-01-11T06:36:17.960Z,24.00
2024-01-11T06:37:17.946Z,23.20
2024-01-11T06:38:17.981Z,23.30
2024-01-11T06:39:17.933Z,23.20
2024-01-11T06:40:17.901Z,23.30
2024-01-11T06:41:17.956Z,22.90
2024-01-11T06:42:19.752Z,23.80
2024-01-11T06:43:17.910Z,23.90
2024-01-11T06:44:17.902Z,23.30
2024-01-11T06:45:17.854Z,23.10
2024-01-11T06:46:17.848Z,23.40
2024-01-11T06:47:18.055Z,23.60
2024-01-11T06:48:17.975Z,25.00
2024-01-11T06:49:17.908Z,23.50
2024-01-11T06:50:17.917Z,23.60
2024-01-11T06:51:17.834Z,24.50
2024-01-11T06:52:17.792Z,23.40
2024-01-11T06:53:17.783Z,23.30
2024-01-11T06:54:17.758Z,24.60
2024-01-11T06:55:17.775Z,24.70
2024-01-11T06:56:17.804Z,23.90
2024-01-11T06:57:17.749Z,24.40
2024-01-11T06:58:17.722Z,23.50
2024-01-11T06:59:19.710Z,23.10
2024-01-11T07:00:17.821Z,23.60
2024-01-11T07:01:17.749Z,23.90
2024-01-11T07:02:17.824Z,23.60
2024-01-11T07:03:17.725Z,25.00
2024-01-11T07:04:17.746Z,24.80
2024-01-11T07:05:17.757Z,24.10
2024-01-11T07:06:17.928Z,24.50
2024-01-11T07:07:17.640Z,24.30
2024-01-11T07:08:17.642Z,24.30
2024-01-11T07:09:17.638Z,23.60
2024-01-11T07:10:17.668Z,24.40
2024-01-11T07:11:17.654Z,24.40
2024-01-11T07:12:17.601Z,23.90
2024-01-11T07:13:17.703Z,23.40
2024-01-11T07:14:17.669Z,23.00
2024-01-11T07:15:17.637Z,24.30
2024-01-11T07:16:17.630Z,23.90
2024-01-11T07:17:17.592Z,23.20
2024-01-11T07:18:17.635Z,24.30
2024-01-11T07:19:17.764Z,23.20
2024-01-11T07:20:17.596Z,23.60
2024-01-11T07:21:17.507Z,24.70
2024-01-11T07:22:17.515Z,23.30
2024-01-11T07:23:17.527Z,23.20
2024-01-11T07:24:17.462Z,23.70
2024-01-11T07:25:17.503Z,24.80
2024-01-11T07:26:17.465Z,23.20
2024-01-11T07:27:17.448Z,24.00
2024-01-11T07:28:17.471Z,23.80
2024-01-11T07:29:17.489Z,23.50
2024-01-11T07:30:17.476Z,23.60
2024-01-11T07:31:17.393Z,24.50
2024-01-11T07:32:17.425Z,24.60
2024-01-11T07:33:17.559Z,22.90
2024-01-11T07:34:17.496Z,24.10
2024-01-11T07:35:19.273Z,23.40
2024-01-11T07:36:17.377Z,24.50
2024-01-11T07:37:17.345Z,24.90
2024-01-11T07:38:17.393Z,24.50
2024-01-11T07:39:17.337Z,23.80
2024-01-11T07:40:17.334Z,26.10
2024-01-11T07:41:17.351Z,23.50
2024-01-11T07:42:17.321Z,23.70
2024-01-11T07:43:17.295Z,24.90
2024-01-11T07:44:17.412Z,24.20
2024-01-11T07:45:17.283Z,24.20
2024-01-11T07:46:17.282Z,23.20
2024-01-11T07:47:17.273Z,23.60
2024-01-11T07:48:17.355Z,23.80
2024-01-11T07:49:17.281Z,23.30
2024-01-11T07:50:17.288Z,24.40
2024-01-11T07:51:17.204Z,23.90
2024-01-11T07:52:19.995Z,23.20
2024-01-11T07:53:17.263Z,24.00
2024-01-11T07:54:17.201Z,24.00
2024-01-11T07:55:17.159Z,24.90
2024-01-11T07:56:17.222Z,24.90
2024-01-11T07:57:17.161Z,24.10
2024-01-11T07:58:17.163Z,25.40
2024-01-11T07:59:17.157Z,24.70
2024-01-11T08:00:17.123Z,24.90
2024-01-11T08:01:17.194Z,24.20
2024-01-11T08:02:17.204Z,23.30
2024-01-11T08:03:17.154Z,25.00
2024-01-11T08:04:17.076Z,25.10
2024-01-11T08:05:17.163Z,23.90
2024-01-11T08:06:17.214Z,25.10
2024-01-11T08:07:17.078Z,24.40
2024-01-11T08:08:17.092Z,24.70
2024-01-11T08:09:17.055Z,24.70
2024-01-11T08:10:17.034Z,24.60
2024-01-11T08:11:17.038Z,26.10
2024-01-11T08:12:17.055Z,23.80
2024-01-11T08:13:17.023Z,24.60
2024-01-11T08:14:17.044Z,24.00
2024-01-11T08:15:16.977Z,23.90
2024-01-11T08:16:16.964Z,23.40
2024-01-11T08:17:16.991Z,24.40
2024-01-11T08:18:16.946Z,23.20
2024-01-11T08:19:17.045Z,23.80
2024-01-11T08:20:17.038Z,23.90
2024-01-11T08:21:16.906Z,23.90
2024-01-11T08:22:17.483Z,24.00
2024-01-11T08:23:17.039Z,25.80
2024-01-11T08:24:16.915Z,24.60
2024-01-11T08:25:16.903Z,24.80
2024-01-11T08:26:17.116Z,24.70
2024-01-11T08:27:16.843Z,25.30
2024-01-11T08:28:16.865Z,24.50
2024-01-11T08:29:16.834Z,23.80
2024-01-11T08:30:16.891Z,25.70
2024-01-11T08:31:16.834Z,26.30
2024-01-11T08:32:27.997Z,26.10
2024-01-11T08:33:16.935Z,25.80
2024-01-11T08:34:16.989Z,26.50
2024-01-11T08:35:16.871Z,24.80
2024-01-11T08:36:16.938Z,24.40
2024-01-11T08:37:16.769Z,24.90
2024-01-11T08:38:16.801Z,25.00
2024-01-11T08:39:16.739Z,25.30
2024-01-11T08:40:16.748Z,24.10
2024-01-11T08:41:16.771Z,24.60
2024-01-11T08:42:16.709Z,24.90
2024-01-11T08:43:16.701Z,25.20
2024-01-11T08:44:16.725Z,26.80
2024-01-11T08:45:16.699Z,25.70
2024-01-11T08:46:16.670Z,28.40
2024-01-11T08:47:16.829Z,27.30
2024-01-11T08:48:16.963Z,27.20
2024-01-11T08:49:16.705Z,27.10
2024-01-11T08:50:18.545Z,25.50
2024-01-11T08:51:16.644Z,25.30
2024-01-11T08:52:16.607Z,26.00
2024-01-11T08:53:16.624Z,25.90
2024-01-11T08:54:16.603Z,26.10
2024-01-11T08:55:16.681Z,25.60
2024-01-11T08:56:16.662Z,26.20
2024-01-11T08:57:16.553Z,25.10
2024-01-11T08:58:16.578Z,25.10
2024-01-11T08:59:16.595Z,24.80
2024-01-11T09:00:16.540Z,26.40
2024-01-11T09:01:16.556Z,26.00
2024-01-11T09:02:19.652Z,26.60
2024-01-11T09:03:16.534Z,25.40
2024-01-11T09:04:16.552Z,25.00
2024-01-11T09:05:16.570Z,26.50
2024-01-11T09:06:16.692Z,24.20
2024-01-11T09:07:16.482Z,26.90
2024-01-11T09:08:16.490Z,25.40
2024-01-11T09:09:16.445Z,26.10
2024-01-11T09:10:16.454Z,25.20
2024-01-11T09:11:16.482Z,26.70
2024-01-11T09:12:16.432Z,25.70
2024-01-11T09:13:16.406Z,27.30
2024-01-11T09:14:16.472Z,26.10
2024-01-11T09:15:16.410Z,26.10
2024-01-11T09:16:16.398Z,25.40
2024-01-11T09:17:16.402Z,26.40
2024-01-11T09:18:16.451Z,26.90
2024-01-11T09:19:16.459Z,26.10
2024-01-11T09:20:16.376Z,26.50
2024-01-11T09:21:16.353Z,26.50
2024-01-11T09:22:16.349Z,26.00
2024-01-11T09:23:16.314Z,26.40
2024-01-11T09:24:16.412Z,26.80
2024-01-11T09:25:16.301Z,27.00
2024-01-11T09:26:16.341Z,27.10
2024-01-11T09:27:16.310Z,26.10
2024-01-11T09:28:16.283Z,26.40
2024-01-11T09:29:16.279Z,27.20
2024-01-11T09:30:16.319Z,26.40
2024-01-11T09:31:16.263Z,26.70
2024-01-11T09:32:16.295Z,28.10
2024-01-11T09:33:16.381Z,27.70
2024-01-11T09:34:16.308Z,26.40
2024-01-11T09:35:16.829Z,26.30
2024-01-11T09:36:16.177Z,25.70
2024-01-11T09:37:16.173Z,25.90
2024-01-11T09:38:16.206Z,26.60
2024-01-11T09:39:16.187Z,26.60
2024-01-11T09:40:16.138Z,27.80
2024-01-11T09:41:16.192Z,26.60
2024-01-11T09:42:16.117Z,27.10
2024-01-11T09:43:16.112Z,29.20
2024-01-11T09:44:16.178Z,27.50
2024-01-11T09:45:16.085Z,27.50
2024-01-11T09:46:16.085Z,27.30
2024-01-11T09:47:16.773Z,27.10
2024-01-11T09:48:16.204Z,26.70
2024-01-11T09:49:16.104Z,27.10
2024-01-11T09:50:16.066Z,25.90
2024-01-11T09:51:16.059Z,26.90
2024-01-11T09:52:16.511Z,27.10
2024-01-11T09:53:16.159Z,26.80
2024-01-11T09:54:16.016Z,27.20
2024-01-11T09:55:15.995Z,26.50
2024-01-11T09:56:16.031Z,26.70
2024-01-11T09:57:15.994Z,27.30
2024-01-11T09:58:15.963Z,27.50
2024-01-11T09:59:16.053Z,26.80
2024-01-11T10:00:15.938Z,27.10
2024-01-11T10:01:15.980Z,28.10
2024-01-11T10:02:15.939Z,27.40
2024-01-11T10:03:15.940Z,26.30
2024-01-11T10:04:15.968Z,27.00
2024-01-11T10:05:15.930Z,27.10
2024-01-11T10:06:15.900Z,26.80
2024-01-11T10:07:15.911Z,26.90
2024-01-11T10:08:15.869Z,27.00
2024-01-11T10:09:15.860Z,26.50
2024-01-11T10:10:15.873Z,26.80
2024-01-11T10:11:15.840Z,25.50
2024-01-11T10:12:15.836Z,27.40
2024-01-11T10:13:15.794Z,26.80
2024-01-11T10:14:15.921Z,28.50
2024-01-11T10:15:15.809Z,27.30
2024-01-11T10:16:15.777Z,26.50
2024-01-11T10:17:20.384Z,26.50
2024-01-11T10:18:15.889Z,27.10
2024-01-11T10:19:15.901Z,27.10
2024-01-11T10:20:16.311Z,27.30
2024-01-11T10:21:15.858Z,26.40
2024-01-11T10:22:15.739Z,27.10
2024-01-11T10:23:15.769Z,27.80
2024-01-11T10:24:15.703Z,27.60
2024-01-11T10:25:15.728Z,27.30
2024-01-11T10:26:15.739Z,25.90
2024-01-11T10:27:15.689Z,27.30
2024-01-11T10:28:15.706Z,26.60
2024-01-11T10:29:15.681Z,25.90
2024-01-11T10:30:15.709Z,26.60
2024-01-11T10:31:15.656Z,26.40
2024-01-11T10:32:15.649Z,26.80
2024-01-11T10:33:15.726Z,27.90
2024-01-11T10:34:15.691Z,26.70
2024-01-11T10:35:15.648Z,25.80
2024-01-11T10:36:15.598Z,27.40
2024-01-11T10:37:15.573Z,26.80
2024-01-11T10:38:15.612Z,26.40
2024-01-11T10:39:15.576Z,27.10
2024-01-11T10:40:15.532Z,26.20
2024-01-11T10:41:15.579Z,27.30
2024-01-11T10:42:15.573Z,27.30
2024-01-11T10:43:15.547Z,26.20
2024-01-11T10:44:15.537Z,26.70
2024-01-11T10:45:15.522Z,25.50
2024-01-11T10:46:15.498Z,26.40
2024-01-11T10:47:15.518Z,26.70
2024-01-11T10:48:15.856Z,26.80
2024-01-11T10:49:15.527Z,26.00
2024-01-11T10:50:15.502Z,26.10
2024-01-11T10:51:15.454Z,26.70
2024-01-11T10:52:15.431Z,27.00
2024-01-11T10:53:15.428Z,27.80
2024-01-11T10:54:15.460Z,27.20
2024-01-11T10:55:15.420Z,26.50
2024-01-11T10:56:15.433Z,26.20
2024-01-11T10:57:15.399Z,26.50
2024-01-11T10:58:15.376Z,25.80
2024-01-11T10:59:15.383Z,26.00
2024-01-11T11:00:15.388Z,27.20
2024-01-11T11:01:15.505Z,25.40
2024-01-11T11:02:15.429Z,26.00
2024-01-11T11:03:15.446Z,25.80
2024-01-11T11:04:15.307Z,25.80
2024-01-11T11:05:15.382Z,25.10
2024-01-11T11:06:15.397Z,24.70
2024-01-11T11:07:15.277Z,24.90
2024-01-11T11:08:15.278Z,26.20
2024-01-11T11:09:15.261Z,25.20
2024-01-11T11:10:15.248Z,25.50
2024-01-11T11:11:15.299Z,26.10
2024-01-11T11:12:15.318Z,26.40
2024-01-11T11:13:15.212Z,25.30
2024-01-11T11:14:15.235Z,24.90
2024-01-11T11:15:15.227Z,25.70
2024-01-11T11:16:15.239Z,25.50
2024-01-11T11:17:15.229Z,25.80
2024-01-11T11:18:15.450Z,25.50
2024-01-11T11:19:15.173Z,26.30
2024-01-11T11:20:15.174Z,24.80
2024-01-11T11:21:15.134Z,24.90
2024-01-11T11:22:15.167Z,25.80
2024-01-11T11:23:15.139Z,25.40
2024-01-11T11:24:15.122Z,24.40
2024-01-11T11:25:15.083Z,25.00
2024-01-11T11:26:15.108Z,26.20
2024-01-11T11:27:15.088Z,26.30
2024-01-11T11:28:15.113Z,25.60
2024-01-11T11:29:15.100Z,25.30
2024-01-11T11:30:15.134Z,24.40
2024-01-11T11:31:15.030Z,25.40
2024-01-11T11:32:15.038Z,25.70
2024-01-11T11:33:15.120Z,25.80
2024-01-11T11:34:15.115Z,24.50
2024-01-11T11:35:15.071Z,25.40
2024-01-11T11:36:14.997Z,25.20
2024-01-11T11:37:15.005Z,24.60
2024-01-11T11:38:15.013Z,26.00
2024-01-11T11:39:15.071Z,23.80
2024-01-11T11:40:14.973Z,24.30
2024-01-11T11:41:14.955Z,25.40
2024-01-11T11:42:14.952Z,25.40
2024-01-11T11:43:14.947Z,24.10
2024-01-11T11:44:15.299Z,24.40
2024-01-11T11:45:14.913Z,25.70
2024-01-11T11:46:14.937Z,24.50
2024-01-11T11:47:14.936Z,24.80
2024-01-11T11:48:14.913Z,24.30
2024-01-11T11:49:14.924Z,23.90
2024-01-11T11:50:14.887Z,24.10
2024-01-11T11:51:17.489Z,24.80
2024-01-11T11:52:14.823Z,24.10
2024-01-11T11:53:14.840Z,24.50
2024-01-11T11:54:14.810Z,23.60
2024-01-11T11:55:14.825Z,23.40
2024-01-11T11:56:14.831Z,23.90
2024-01-11T11:57:14.798Z,23.80
2024-01-11T11:58:14.753Z,24.20
2024-01-11T11:59:14.833Z,23.80
2024-01-11T12:00:14.740Z,22.40
2024-01-11T12:01:14.762Z,23.50
2024-01-11T12:02:14.731Z,22.70
2024-01-11T12:03:14.736Z,22.90
2024-01-11T12:04:14.728Z,23.70
2024-01-11T12:05:14.803Z,23.80
2024-01-11T12:06:14.750Z,23.50
2024-01-11T12:07:14.816Z,22.40
2024-01-11T12:08:14.715Z,22.30
2024-01-11T12:09:14.646Z,22.30
2024-01-11T12:10:14.655Z,22.20
2024-01-11T12:11:14.672Z,22.90
2024-01-11T12:12:16.304Z,22.00
2024-01-11T12:13:14.610Z,23.50
2024-01-11T12:14:14.625Z,22.60
2024-01-11T12:15:14.592Z,23.30
2024-01-11T12:16:14.615Z,22.10
2024-01-11T12:17:14.603Z,22.30
2024-01-11T12:18:14.750Z,21.70
2024-01-11T12:19:14.597Z,22.40
2024-01-11T12:20:14.599Z,21.70
2024-01-11T12:21:14.550Z,21.40
2024-01-11T12:22:14.525Z,22.40
2024-01-11T12:23:14.519Z,21.90
2024-01-11T12:24:14.497Z,21.60
2024-01-11T12:25:14.484Z,21.40
2024-01-11T12:26:15.566Z,21.50
2024-01-11T12:27:14.500Z,21.50
2024-01-11T12:28:14.519Z,21.60
2024-01-11T12:29:14.499Z,21.90
2024-01-11T12:30:14.539Z,21.50
2024-01-11T12:31:14.644Z,22.10
2024-01-11T12:32:14.450Z,22.10
2024-01-11T12:33:14.737Z,21.00
2024-01-11T12:34:14.478Z,22.90
2024-01-11T12:35:14.420Z,21.40
2024-01-11T12:36:14.393Z,22.80
2024-01-11T12:37:14.404Z,21.70
2024-01-11T12:38:14.421Z,22.10
2024-01-11T12:39:14.353Z,22.30
2024-01-11T12:40:14.377Z,21.70
2024-01-11T12:41:14.369Z,23.10
2024-01-11T12:42:14.360Z,21.80
2024-01-11T12:43:14.352Z,21.90
2024-01-11T12:44:14.325Z,20.90
2024-01-11T12:45:14.291Z,21.60
2024-01-11T12:46:14.296Z,22.40
2024-01-11T12:47:14.319Z,22.30
2024-01-11T12:48:14.422Z,21.80
2024-01-11T12:49:14.341Z,20.80
2024-01-11T12:50:14.315Z,21.50
2024-01-11T12:51:20.400Z,21.50
2024-01-11T12:52:14.256Z,22.70